Christos Nicolaou

Scout - Apollon
16 Apr 2028
Sonntag
Verarbeitung

Persönlichkeit

Anpassungsfähigkeit (14) Ehrgeiz (3) Kontroverse (6) Loyalität (8) Druck (17) Professionalität (6) Fairness (11) Temperament (11)

Profil

Trainerstil Demokratisch
Lizenz Nationale A
Entschlossenheit 8
Menschenführung 10
Motivation 10
Disziplin 11
Arbeitszufriedenheit
100%
Ermüdung
0%
Rolle Scout
Gehalt 20.3K p/W
Vertrag 14.03.2029

Leistung

Verhalten Gut
Trainingseffektivität
36%
Spielerentwicklung
30%
Verletzungsprävention
20%
Taktische Umsetzung
20%

Letzte Ereignisse

Spieler begutachtet jetzt
Nahm an einer Scouting-Besprechung teil jetzt
Empfahl ein Transferziel jetzt
Empfahl ein Transferziel jetzt
Spieler begutachtet jetzt
Spieler begutachtet jetzt
Spieler begutachtet jetzt
Spieler begutachtet 7T her

Aktuell beobachtet

118
Spieler Verein Status Fähigkeit Vertrauen Beobachtet Zuletzt beobachtet Letzte Stimme
Filip Lissah Shrewsbury Town Aktiv 114 / 114 40% 3 15.04.2028 -
Matthew Smith Accrington Stanley Aktiv 102 / 117 40% 1 15.04.2028 -
Ramón Valladolid Aktiv 147 / 125 40% 1 15.04.2028 -
Ryan Kavuma-McQueen Accrington Stanley Aktiv 120 / 125 40% 5 14.04.2028 -
Francisco Fernandes Porto Aktiv 106 / 123 40% 2 14.04.2028 -
Ilja Ivarlak Spartak Moscow Aktiv 79 / 77 40% 5 14.04.2028 -
Hayden Matthews Tranmere Rovers Aktiv 112 / 103 40% 3 14.04.2028 -
Pablo Ibañez Alavés Aktiv 125 / 128 40% 1 14.04.2028 -
Joe Rankin-Costello Charlton Athletic Aktiv 139 / 133 40% 3 12.04.2028 -
Dean Campbell Northampton Town Aktiv 117 / 107 40% 3 12.04.2028 -
Eli King Gillingham Aktiv 116 / 106 40% 1 12.04.2028 -
Ethan Bristow Tranmere Rovers Aktiv 106 / 103 40% 2 11.04.2028 -
Jayden Sweeney Grimsby Town Aktiv 106 / 105 40% 1 11.04.2028 -
Bradley Ibrahim Plymouth Argyle Aktiv 107 / 111 40% 2 10.04.2028 -
Manu Hernando Racing Santander Aktiv 130 / 139 40% 1 10.04.2028 -
Dmitry Pestryakov Krasnodar Aktiv 124 / 132 40% 3 08.04.2028 -
Connor Barrett Walsall Aktiv 105 / 118 40% 4 08.04.2028 -
Rhys Walters Port Vale Aktiv 105 / 101 40% 1 08.04.2028 -
Ryan Stirk Chesterfield Aktiv 117 / 95 40% 1 08.04.2028 -
Luke Brooke-Smith Chesterfield Aktiv 99 / 123 40% 1 08.04.2028 -
Josh Benson Rotherham United Aktiv 115 / 122 40% 2 06.04.2028 -
Jack Shepherd Swindon Town Aktiv 119 / 105 40% 2 06.04.2028 -
René López Morelia Aktiv 117 / 123 40% 2 06.04.2028 -
Bernardo Lima Porto Aktiv 100 / 109 40% 1 06.04.2028 -
Amin Nabizada Exeter City Aktiv 117 / 132 40% 3 04.04.2028 -
Omar Khedr Gillingham Aktiv 104 / 114 40% 2 04.04.2028 -
Brodie Spencer Oxford United Aktiv 138 / 141 40% 2 04.04.2028 -
Giannis Kosti Levadiakos Aktiv 131 / 123 40% 2 04.04.2028 -
Germán Barbas Burgos Aktiv 117 / 113 40% 1 04.04.2028 -
Marvin Kaleta Rotherham United Aktiv 115 / 129 40% 2 02.04.2028 -
Mattia Viti Sampdoria Aktiv 133 / 150 40% 1 02.04.2028 -
Santiago Puzzo Al Wahda Aktiv 116 / 120 40% 3 01.04.2028 -
Jamal Iddrissou Pergolettese Aktiv 107 / 115 40% 1 01.04.2028 -
İsak Vural Audace Cerignola Aktiv 131 / 135 40% 1 01.04.2028 -
Sammy Braybrooke Crawley Town Aktiv 125 / 118 40% 1 30.03.2028 -
Jake Evans Crewe Alexandra Aktiv 113 / 106 40% 4 29.03.2028 -
Tomás Peixoto Porto Aktiv 87 / 92 40% 2 29.03.2028 -
Charlie Webster Burton Albion Aktiv 111 / 135 40% 2 29.03.2028 -
Tyler Fletcher Rotherham United Aktiv 100 / 113 40% 2 28.03.2028 -
Ben Broggio Mansfield Town Aktiv 108 / 100 40% 2 28.03.2028 -
Luca Scarlato Perugia Aktiv 98 / 101 40% 2 28.03.2028 -
Ali McCann Preston Aktiv 130 / 113 40% 2 26.03.2028 -
Reece Oxford Shrewsbury Town Aktiv 113 / 98 40% 1 26.03.2028 -
Matvey Ivanov Zenit Aktiv 78 / 91 40% 2 25.03.2028 -
Gabriel Mec Feirense Aktiv 130 / 135 40% 6 25.03.2028 -
Nesta Guinness-Walker Bradford City Aktiv 117 / 92 40% 1 25.03.2028 -
Ignacio Saavedra Sochi Aktiv 131 / 118 40% 1 25.03.2028 -
Dmitry Shopin Spartak Moscow Aktiv 78 / 70 40% 1 25.03.2028 -
Christ Makosso Accrington Stanley Aktiv 133 / 112 40% 1 23.03.2028 -
Ethan Erhahon Cheltenham Town Aktiv 109 / 134 40% 1 23.03.2028 -
Kyle John Port Vale Aktiv 111 / 104 40% 1 22.03.2028 -
Arnau Comas Deportivo La Coruña Aktiv 136 / 141 40% 1 21.03.2028 -
Harvey White Stevenage Aktiv 123 / 121 40% 1 21.03.2028 -
Simone Canestrelli Pisa Aktiv 144 / 146 40% 1 19.03.2028 -
Miloš Brnović Arsenal Tula Aktiv 108 / 103 40% 1 19.03.2028 -
Jan Bürger Northampton Town Aktiv 121 / 114 40% 1 15.03.2028 -
Igor Tyjon Barrow AFC Aktiv 116 / 137 40% 4 14.03.2028 -
Gabe Forsyth Colchester United Aktiv 117 / 128 40% 3 14.03.2028 -
Aymen Sliti Feyenoord Aktiv 140 / 150 40% 1 14.03.2028 -
Ryan McAidoo Oldham Athletic Aktiv 121 / 138 40% 3 13.03.2028 -
Gabriele Bertolini Vicenza Aktiv 107 / 118 40% 4 13.03.2028 -
João Abreu Porto Aktiv 94 / 113 40% 1 12.03.2028 -
Leo Pecover Swindon Town Aktiv 107 / 97 40% 1 01.03.2028 -
Noah Fernandez PSV Aktiv 119 / 117 40% 4 29.02.2028 -
Mads Abrahamsen Zenit Penza Aktiv 97 / 85 40% 1 28.02.2028 -
Paulo Iago Sporting CP Aktiv 92 / 97 40% 1 17.02.2028 -
Cristiano Oliveira New England Revolution Aktiv 94 / 83 40% 2 14.02.2028 -
Colin Guske Orlando City Aktiv 105 / 93 40% 2 14.02.2028 -
Zane Albarus Shrewsbury Town Aktiv 108 / 118 40% 1 13.02.2028 -
Keyano Marrah Hammarby Aktiv 106 / 114 40% 4 12.02.2028 -
Lewis Orford Crewe Alexandra Aktiv 120 / 130 40% 1 09.02.2028 -
Jorthy Mokio ADO Den Haag Aktiv 123 / 138 40% 1 09.02.2028 -
Ondřej Čelůstka AEL Bericht bereit 113 / 99 69% 1 31.01.2028 -
Ruben Ramos LA Galaxy Aktiv 100 / 111 40% 7 30.01.2028 -
Bautista Carboni Defensores Unidos Aktiv 102 / 121 40% 2 30.01.2028 -
Nicolás Ferreira Artigas Aktiv 73 / 91 40% 3 25.01.2028 -
Clayton Diandy Al-Diriyah Aktiv 106 / 125 40% 1 25.01.2028 -
Gustavo Ledes AE Kition Verloren 119 / 126 69% 1 01.01.2028 -
Alex Verón Vélez Aktiv 125 / 134 40% 5 31.12.2027 -
Idris Ajiya Nasarawa United Aktiv 90 / 79 40% 2 31.12.2027 -
Matias Siltanen Malmo FF Aktiv 116 / 122 40% 4 30.12.2027 -
Onyeuche Ujunwa Ikorodu City Aktiv 82 / 101 40% 1 30.12.2027 -
Emmanuel Ndubueze Shooting Stars Aktiv 78 / 103 40% 3 29.12.2027 -
Jeremías Merlo Gimnasia La Plata Aktiv 123 / 130 40% 5 25.12.2027 -
Luighi Palmeiras Aktiv 102 / 103 40% 4 24.12.2027 -
Sebastián Ramírez Aguilas Doradas Aktiv 96 / 100 40% 1 24.12.2027 -
Agustín De la Cuesta Racing Aktiv 113 / 108 40% 1 24.12.2027 -
Joel Ezra Enyimba Aktiv 95 / 104 40% 6 19.12.2027 -
Léo Llaneros Aktiv 81 / 73 40% 3 19.12.2027 -
Victor Hernandez Santa Fe Aktiv 122 / 109 40% 6 18.12.2027 -
Luca Williams-Barnett Walsall Aktiv 124 / 139 40% 2 18.12.2027 -
Rafael Moreno Atletico Venezuela Aktiv 102 / 124 40% 2 17.12.2027 -
Tomás Parmo Independiente Aktiv 117 / 148 40% 2 14.12.2027 -
Tomás Aranda Boca Juniors Aktiv 114 / 126 40% 1 14.12.2027 -
Tiago Pucciarelli IF Elfsborg Aktiv 112 / 116 40% 5 10.12.2027 -
Chimobi Igwilo Rangers International Aktiv 77 / 99 40% 1 10.12.2027 -
Francisco Triver River Plate Aktiv 105 / 109 40% 3 08.12.2027 -
Lucas Camejo River Plate Aktiv 88 / 105 40% 2 08.12.2027 -
Abdulrahman Hamisu Niger Tornadoes Aktiv 89 / 82 40% 1 01.12.2027 -
Julian Hall Real Salt Lake Aktiv 103 / 115 40% 1 01.12.2027 -
Kabiru Abdullahi Barau Aktiv 85 / 80 40% 1 30.11.2027 -
Josh Nichols Oldham Athletic Aktiv 117 / 109 40% 1 30.11.2027 -
Piero Cari Alianza Lima Aktiv 102 / 96 40% 1 22.11.2027 -
Julián Bragado Morón Aktiv 91 / 107 40% 1 21.11.2027 -
Joseph Abah Remo Stars Aktiv 97 / 85 40% 2 17.11.2027 -
Matías Arias Vélez Aktiv 114 / 121 40% 3 15.11.2027 -
Nupe Godstime Bayelsa United Aktiv 93 / 98 40% 1 15.11.2027 -
Adrian Skogmar Malmo FF Aktiv 105 / 130 40% 1 14.11.2027 -
Nicolás Barros Schelotto Gimnasia La Plata Aktiv 128 / 121 40% 3 12.11.2027 -
Hassan Beja AFC Leopards Aktiv 97 / 103 40% 1 04.10.2027 -
Joel Orlando Almagro Aktiv 115 / 130 40% 2 15.09.2027 -
Fazliddin Zuhriddinov Renaissance Aktiv 95 / 76 40% 1 15.09.2027 -
Kwandile Gumemde US Bougouni Aktiv 91 / 90 40% 1 14.09.2027 -
Dylan Cabral Arsenal Aktiv 93 / 101 40% 1 09.09.2027 -
Francisco Marchant Colo-Colo Aktiv 90 / 93 40% 1 07.09.2027 -
Tobias Schättin Anorthosis Aktiv 116 / 119 69% 1 16.08.2027 Befürworten
Nicolás Andereggen Ethnikos Achnas Abgelehnt 118 / 111 65% 1 01.06.2027 Ablehnen
Emmanuel Lomotey Ethnikos Achnas Aktiv 105 / 129 62% 1 10.08.2026 Befürworten